createdAt,value
2017-06-26T03:31:13.902Z,3.83
2017-06-26T03:33:41.532Z,3.40
2017-06-26T03:36:10.332Z,3.60
2017-06-26T03:38:37.966Z,3.70
2017-06-26T03:41:05.627Z,4.07
2017-06-26T03:43:33.311Z,4.00
2017-06-26T03:46:00.953Z,4.13
2017-06-26T03:48:28.595Z,3.70
2017-06-26T03:50:56.241Z,3.30
2017-06-26T03:53:24.263Z,3.60
2017-06-26T03:55:51.904Z,3.40
2017-06-26T03:58:19.537Z,3.90
2017-06-26T04:00:47.197Z,3.90
2017-06-26T04:03:14.839Z,3.60
2017-06-26T04:05:42.489Z,3.90
2017-06-26T04:08:10.116Z,3.63
2017-06-26T04:10:37.803Z,4.20
2017-06-26T04:13:05.439Z,4.60
2017-06-26T04:15:33.409Z,4.83
2017-06-26T04:18:01.834Z,3.97
2017-06-26T04:20:29.485Z,4.20
2017-06-26T04:22:57.140Z,3.77
2017-06-26T04:25:24.790Z,4.00
2017-06-26T04:27:53.230Z,4.00
2017-06-26T04:30:20.850Z,4.00
2017-06-26T04:32:48.883Z,3.30
2017-06-26T04:35:16.514Z,3.53
2017-06-26T04:37:44.138Z,3.60
2017-06-26T04:40:11.811Z,4.17
2017-06-26T04:42:39.457Z,4.03
2017-06-26T04:45:07.110Z,3.80
2017-06-26T04:47:35.523Z,4.20
2017-06-26T04:50:03.170Z,3.67
2017-06-26T04:52:30.819Z,3.80
2017-06-26T04:54:58.862Z,3.30
2017-06-26T04:57:26.498Z,3.93
2017-06-26T04:59:54.124Z,3.40
2017-06-26T05:02:21.792Z,3.50
2017-06-26T05:04:49.455Z,3.53
2017-06-26T05:07:17.115Z,3.47
2017-06-26T05:09:44.755Z,3.50
2017-06-26T05:12:13.172Z,3.60
2017-06-26T05:14:40.774Z,4.00
2017-06-26T05:17:08.740Z,3.30
2017-06-26T05:19:36.379Z,3.37
2017-06-26T05:22:04.045Z,3.83
2017-06-26T05:24:31.722Z,3.00
2017-06-26T05:26:59.363Z,3.30
2017-06-26T05:29:27.026Z,3.47
2017-06-26T05:31:54.656Z,4.33
2017-06-26T05:34:22.307Z,3.37
2017-06-26T05:36:49.930Z,3.23
2017-06-26T05:39:17.594Z,3.53
2017-06-26T05:41:45.236Z,4.60
2017-06-26T05:44:13.227Z,3.13
2017-06-26T05:46:40.874Z,2.77
2017-06-26T05:49:08.499Z,3.10
2017-06-26T05:51:36.162Z,3.00
2017-06-26T05:54:03.814Z,3.30
2017-06-26T05:56:31.495Z,3.10
2017-06-26T05:58:59.127Z,3.63
2017-06-26T06:01:26.818Z,3.00
2017-06-26T06:03:54.455Z,4.10
2017-06-26T06:06:22.271Z,3.30
2017-06-26T06:08:49.911Z,3.27
2017-06-26T06:11:17.934Z,2.90
2017-06-26T06:13:46.348Z,2.67
2017-06-26T06:16:13.994Z,2.93
2017-06-26T06:18:41.719Z,2.63
2017-06-26T06:21:09.350Z,2.77
2017-06-26T06:23:37.012Z,2.70
2017-06-26T06:26:04.646Z,2.80
2017-06-26T06:28:32.705Z,2.83
2017-06-26T06:31:00.334Z,2.83
2017-06-26T06:33:27.975Z,19.97
2017-06-26T06:35:55.665Z,22.57
2017-06-26T06:38:24.123Z,11.00
2017-06-26T06:40:51.790Z,19.80
2017-06-26T06:43:19.434Z,10.70
2017-06-26T06:45:47.093Z,13.70
2017-06-26T06:48:14.739Z,16.93
2017-06-26T06:50:42.788Z,12.90
2017-06-26T06:53:10.454Z,18.50
2017-06-26T06:55:38.199Z,15.87
2017-06-26T06:58:06.610Z,23.00
2017-06-26T07:00:34.282Z,14.17
2017-06-26T07:03:01.950Z,6.73
2017-06-26T07:05:29.599Z,2.83
2017-06-26T07:07:57.260Z,3.13
2017-06-26T07:10:24.916Z,2.50
2017-06-26T07:12:52.582Z,2.47
2017-06-26T07:15:20.253Z,2.90
2017-06-26T07:17:47.903Z,3.03
2017-06-26T07:20:15.566Z,2.40
2017-06-26T07:22:43.250Z,2.20
2017-06-26T07:25:10.909Z,2.00
2017-06-26T07:27:38.550Z,2.13
2017-06-26T07:30:06.531Z,2.57
2017-06-26T07:32:34.178Z,2.50
2017-06-26T07:35:01.818Z,1.90
2017-06-26T07:37:30.562Z,2.30
2017-06-26T07:39:58.180Z,2.10
2017-06-26T07:42:25.834Z,2.03
2017-06-26T07:44:53.903Z,2.13
2017-06-26T07:47:21.582Z,4.17
2017-06-26T07:49:49.240Z,3.80
2017-06-26T07:52:17.214Z,4.23
2017-06-26T07:54:44.877Z,2.20
2017-06-26T07:57:12.532Z,2.40
2017-06-26T07:59:40.574Z,1.87
2017-06-26T08:02:08.250Z,1.67
2017-06-26T08:04:35.878Z,1.30
2017-06-26T08:07:03.884Z,2.07
2017-06-26T08:09:31.531Z,1.60
2017-06-26T08:11:59.943Z,1.60
2017-06-26T08:14:27.983Z,1.80
2017-06-26T08:16:56.400Z,2.00
2017-06-26T08:19:24.114Z,1.83
2017-06-26T08:21:52.107Z,1.77
2017-06-26T08:24:19.771Z,1.90
2017-06-26T08:26:47.422Z,1.80
2017-06-26T08:29:15.392Z,1.60
2017-06-26T08:31:43.080Z,1.77
2017-06-26T08:34:10.738Z,1.80
2017-06-26T08:36:38.701Z,1.70
2017-06-26T08:39:06.427Z,1.60
2017-06-26T08:41:34.091Z,2.00
2017-06-26T08:44:02.485Z,1.57
2017-06-26T08:46:30.898Z,2.00
2017-06-26T08:48:58.589Z,1.90
2017-06-26T08:51:26.598Z,1.80
2017-06-26T08:53:55.014Z,2.20
2017-06-26T08:56:22.652Z,2.10
2017-06-26T08:58:50.621Z,1.87
2017-06-26T09:01:18.237Z,2.17
2017-06-26T09:03:46.007Z,1.63
2017-06-26T09:06:14.002Z,1.67
2017-06-26T09:08:42.400Z,1.87
2017-06-26T09:11:10.061Z,1.90
2017-06-26T09:13:38.047Z,2.17
2017-06-26T09:16:05.689Z,1.60
2017-06-26T09:18:33.335Z,1.90
2017-06-26T09:21:02.167Z,2.00
2017-06-26T09:23:29.810Z,1.73
2017-06-26T09:25:57.438Z,1.87
2017-06-26T09:28:25.411Z,1.77
2017-06-26T09:30:53.801Z,2.00
2017-06-26T09:33:22.185Z,1.40
2017-06-26T09:35:50.232Z,1.90
2017-06-26T09:38:17.883Z,1.60
2017-06-26T09:40:45.534Z,1.77
2017-06-26T09:43:13.554Z,1.80
2017-06-26T09:45:41.210Z,1.70
2017-06-26T09:48:08.914Z,1.70
2017-06-26T09:50:36.925Z,1.90
2017-06-26T09:53:04.560Z,1.57
2017-06-26T09:55:32.196Z,2.00
2017-06-26T09:58:00.238Z,1.90
2017-06-26T10:00:27.905Z,1.90
2017-06-26T10:02:55.541Z,1.60
2017-06-26T10:05:23.538Z,2.27
2017-06-26T10:07:51.208Z,1.77
2017-06-26T10:10:18.843Z,1.80
2017-06-26T10:12:46.906Z,1.90
2017-06-26T10:15:14.555Z,1.77
2017-06-26T10:17:42.230Z,1.50
2017-06-26T10:20:09.894Z,4.33
2017-06-26T10:22:38.427Z,1.97
2017-06-26T10:25:06.137Z,2.17
2017-06-26T10:27:34.012Z,2.63
2017-06-26T10:30:03.863Z,2.00
2017-06-26T10:32:31.502Z,1.93
2017-06-26T10:34:59.137Z,3.43
2017-06-26T10:37:26.812Z,3.60
2017-06-26T10:39:54.469Z,4.43
2017-06-26T10:42:23.118Z,4.40
2017-06-26T10:44:50.752Z,2.90
2017-06-26T10:47:18.630Z,1.60
2017-06-26T10:49:46.261Z,1.70
2017-06-26T10:52:14.164Z,1.80
2017-06-26T10:54:41.819Z,2.00
2017-06-26T10:57:09.683Z,2.33
2017-06-26T10:59:37.375Z,1.90
2017-06-26T11:02:05.531Z,2.00
2017-06-26T11:04:33.196Z,2.27
2017-06-26T11:07:00.839Z,2.07
2017-06-26T11:09:28.869Z,2.73
2017-06-26T11:11:57.281Z,4.37
2017-06-26T11:14:24.922Z,4.00
2017-06-26T11:16:52.562Z,3.87
2017-06-26T11:19:20.192Z,3.30
2017-06-26T11:21:47.844Z,2.80
2017-06-26T11:24:15.484Z,3.77
2017-06-26T11:26:43.137Z,2.50
2017-06-26T11:29:10.768Z,1.80
2017-06-26T11:31:39.570Z,2.10
2017-06-26T11:34:07.990Z,2.50
2017-06-26T11:36:35.628Z,2.53
2017-06-26T11:39:03.360Z,3.50
2017-06-26T11:41:31.017Z,1.90
2017-06-26T11:43:58.721Z,2.03
2017-06-26T11:46:26.413Z,1.90
2017-06-26T11:48:54.078Z,2.00
2017-06-26T11:51:21.720Z,1.90
2017-06-26T11:53:49.375Z,1.97
2017-06-26T11:56:17.036Z,2.40
2017-06-26T11:58:45.013Z,2.00
2017-06-26T12:01:12.644Z,1.93
2017-06-26T12:03:40.298Z,1.70
2017-06-26T12:06:08.731Z,1.97
2017-06-26T12:08:36.375Z,1.90
2017-06-26T12:11:04.202Z,1.87
2017-06-26T12:13:32.599Z,1.50
2017-06-26T12:16:00.824Z,2.23
2017-06-26T12:18:28.480Z,1.90
2017-06-26T12:20:56.159Z,2.00
2017-06-26T12:23:23.804Z,2.20
2017-06-26T12:25:51.830Z,2.10
2017-06-26T12:28:19.487Z,2.00
2017-06-26T12:30:47.149Z,2.20
2017-06-26T12:33:14.846Z,1.93
2017-06-26T12:35:42.674Z,1.97
2017-06-26T12:38:10.443Z,1.87
2017-06-26T12:40:38.855Z,1.90
2017-06-26T12:43:06.489Z,1.80
2017-06-26T12:45:34.131Z,1.70
2017-06-26T12:48:02.547Z,1.70
2017-06-26T12:50:30.221Z,1.87
2017-06-26T12:52:57.974Z,1.60
2017-06-26T12:55:25.728Z,1.80
2017-06-26T12:57:53.347Z,1.90
2017-06-26T13:00:21.032Z,1.77
2017-06-26T13:02:49.432Z,1.63
2017-06-26T13:05:17.499Z,1.40
2017-06-26T13:07:45.158Z,1.60
2017-06-26T13:10:13.106Z,2.00
2017-06-26T13:12:40.980Z,1.60
2017-06-26T13:15:08.659Z,1.90
2017-06-26T13:17:36.330Z,1.50
2017-06-26T13:20:03.981Z,1.40
2017-06-26T13:22:31.988Z,2.13
2017-06-26T13:24:59.627Z,1.63
2017-06-26T13:27:27.658Z,1.70
2017-06-26T13:29:56.075Z,1.70
2017-06-26T13:32:23.864Z,1.70
2017-06-26T13:34:51.522Z,1.90
2017-06-26T13:37:19.149Z,2.13
2017-06-26T13:39:47.199Z,1.63
2017-06-26T13:42:15.600Z,1.87
2017-06-26T13:44:43.255Z,1.57
2017-06-26T13:47:10.958Z,1.53
2017-06-26T13:49:38.617Z,1.53
2017-06-26T13:52:06.274Z,1.50
2017-06-26T13:54:33.931Z,1.67
2017-06-26T13:57:01.588Z,1.77
2017-06-26T13:59:29.224Z,1.40
2017-06-26T14:01:56.876Z,1.60
2017-06-26T14:04:25.289Z,1.70
2017-06-26T14:06:53.345Z,1.47
2017-06-26T14:09:21.064Z,1.80
2017-06-26T14:11:48.732Z,1.60
2017-06-26T14:14:16.395Z,1.50
2017-06-26T14:16:44.040Z,1.60
2017-06-26T14:19:11.709Z,1.97
2017-06-26T14:21:39.371Z,1.60
2017-06-26T14:24:07.456Z,1.40
2017-06-26T14:26:35.100Z,1.53
2017-06-26T14:29:02.772Z,1.70
2017-06-26T14:31:30.410Z,1.57
2017-06-26T14:33:58.437Z,1.70
2017-06-26T14:36:26.080Z,1.70
2017-06-26T14:38:54.460Z,1.57
2017-06-26T14:41:23.354Z,1.53
2017-06-26T14:43:51.752Z,2.67
2017-06-26T14:46:19.463Z,2.00
2017-06-26T14:48:47.488Z,1.80
2017-06-26T14:51:15.125Z,1.70
2017-06-26T14:53:43.535Z,1.47
2017-06-26T14:56:11.999Z,1.70
2017-06-26T14:58:39.666Z,1.90
2017-06-26T15:01:07.360Z,1.60
2017-06-26T15:03:35.399Z,1.50
2017-06-26T15:06:03.065Z,1.60
2017-06-26T15:08:30.898Z,1.50
2017-06-26T15:10:59.109Z,1.67
2017-06-26T15:13:26.765Z,1.83
2017-06-26T15:15:54.391Z,1.30
2017-06-26T15:18:22.373Z,1.60
2017-06-26T15:20:50.768Z,1.80
2017-06-26T15:23:18.400Z,1.47
2017-06-26T15:25:46.512Z,1.30
2017-06-26T15:28:14.178Z,1.30
2017-06-26T15:30:41.815Z,1.87
2017-06-26T15:33:09.802Z,1.90
2017-06-26T15:35:37.450Z,1.50
2017-06-26T15:38:05.997Z,1.60
2017-06-26T15:40:33.991Z,1.80
2017-06-26T15:43:01.654Z,1.73
2017-06-26T15:45:29.389Z,1.57
2017-06-26T15:47:57.294Z,1.47
2017-06-26T15:50:25.755Z,2.00
2017-06-26T15:52:54.246Z,1.70
2017-06-26T15:55:22.681Z,1.63
2017-06-26T15:57:50.337Z,1.80
2017-06-26T16:00:18.001Z,2.00
2017-06-26T16:02:45.756Z,2.13
2017-06-26T16:05:13.471Z,1.60
2017-06-26T16:07:41.115Z,1.60
2017-06-26T16:10:08.792Z,1.47
2017-06-26T16:12:36.430Z,1.90
2017-06-26T16:15:04.394Z,1.60
2017-06-26T16:17:32.200Z,1.63
2017-06-26T16:20:01.156Z,1.53
2017-06-26T16:22:28.824Z,2.17
2017-06-26T16:24:56.490Z,1.77
2017-06-26T16:27:24.490Z,1.70
2017-06-26T16:29:53.165Z,1.70
2017-06-26T16:32:21.598Z,1.80
2017-06-26T16:34:49.649Z,1.57
2017-06-26T16:37:17.283Z,1.87
2017-06-26T16:39:44.928Z,1.80
2017-06-26T16:42:12.907Z,1.73
2017-06-26T16:44:40.563Z,1.80
2017-06-26T16:47:08.233Z,1.70
2017-06-26T16:52:35.094Z,1.80
2017-06-26T16:55:02.720Z,1.70
2017-06-26T16:57:30.358Z,1.60
2017-06-26T16:59:58.413Z,2.00
2017-06-26T17:02:27.253Z,1.77
2017-06-26T17:04:54.914Z,1.70
2017-06-26T17:07:22.613Z,1.40
2017-06-26T17:09:50.248Z,2.00
2017-06-26T17:12:18.084Z,1.87
2017-06-26T17:14:45.735Z,1.53
2017-06-26T17:20:17.871Z,1.53
2017-06-26T17:22:45.540Z,1.90
2017-06-26T17:25:13.170Z,1.77
2017-06-26T17:27:41.199Z,1.87
2017-06-26T17:30:09.611Z,1.60
2017-06-26T17:32:37.254Z,1.70
2017-06-26T17:35:04.896Z,1.63
2017-06-26T17:37:32.538Z,2.00
2017-06-26T17:40:00.176Z,1.90
2017-06-26T17:42:27.833Z,1.63
2017-06-26T17:44:55.480Z,1.57
2017-06-26T17:47:23.124Z,1.77
2017-06-26T17:49:51.172Z,2.10
2017-06-26T17:52:18.814Z,1.70
2017-06-26T17:54:46.448Z,1.60
2017-06-26T17:57:14.113Z,2.10
2017-06-26T17:59:41.753Z,1.63
2017-06-26T18:02:09.434Z,1.60
2017-06-26T18:04:37.104Z,1.90
2017-06-26T18:07:05.074Z,2.13
2017-06-26T18:09:32.717Z,1.87
2017-06-26T18:12:00.393Z,1.83
2017-06-26T18:14:28.395Z,2.00
2017-06-26T18:16:56.044Z,1.90
2017-06-26T18:19:23.713Z,1.90
2017-06-26T18:21:51.688Z,2.63
2017-06-26T18:24:19.332Z,2.00
2017-06-26T18:26:46.967Z,2.57
2017-06-26T18:29:14.973Z,1.60
2017-06-26T18:31:44.198Z,1.80
2017-06-26T18:34:11.834Z,1.70
2017-06-26T18:36:39.499Z,1.97
2017-06-26T18:39:07.132Z,1.73
2017-06-26T18:41:34.779Z,1.97
2017-06-26T18:44:02.403Z,1.77
2017-06-26T18:46:31.208Z,1.97
2017-06-26T18:48:58.923Z,2.00
2017-06-26T18:51:26.608Z,1.73
2017-06-26T18:53:55.368Z,1.83
2017-06-26T18:56:23.047Z,1.70
2017-06-26T18:58:50.811Z,2.00
2017-06-26T19:01:18.459Z,3.57
2017-06-26T19:03:47.062Z,2.23
2017-06-26T19:06:14.728Z,2.27
2017-06-26T19:08:42.768Z,2.30
2017-06-26T19:11:10.452Z,1.90
2017-06-26T19:13:38.118Z,2.13
2017-06-26T19:16:06.598Z,1.93
2017-06-26T19:18:34.259Z,1.93
2017-06-26T19:21:01.951Z,2.10
2017-06-26T19:23:29.643Z,1.87
2017-06-26T19:25:57.381Z,2.20
2017-06-26T19:31:18.182Z,1.93
2017-06-26T19:33:45.867Z,2.03
2017-06-26T19:36:13.525Z,2.43
2017-06-26T19:38:41.684Z,1.77
2017-06-26T19:41:09.380Z,2.00
2017-06-26T19:43:37.113Z,2.37
2017-06-26T19:46:05.245Z,2.10
2017-06-26T19:48:32.925Z,2.13
2017-06-26T19:51:00.630Z,2.00
2017-06-26T19:53:28.746Z,2.30
2017-06-26T19:55:56.419Z,2.27
2017-06-26T19:58:24.106Z,2.00
2017-06-26T20:00:51.791Z,2.40
2017-06-26T20:03:19.517Z,2.37
2017-06-26T20:05:47.267Z,2.37
2017-06-26T20:08:14.932Z,2.17
2017-06-26T20:10:42.934Z,2.00
2017-06-26T20:13:10.608Z,2.03
2017-06-26T20:15:38.258Z,1.93
2017-06-26T20:18:05.941Z,2.37
2017-06-26T20:20:33.613Z,2.23
2017-06-26T20:28:50.091Z,2.30
2017-06-26T20:31:17.777Z,2.47
2017-06-26T20:33:45.443Z,2.20
2017-06-26T20:39:08.830Z,2.47
2017-06-26T20:41:36.614Z,2.03
2017-06-26T20:44:04.300Z,2.20
2017-06-26T20:46:32.308Z,2.30
2017-06-26T20:49:00.716Z,2.13
2017-06-26T20:51:28.391Z,2.23
2017-06-26T20:53:56.459Z,1.90
2017-06-26T20:56:24.151Z,2.50
2017-06-26T20:58:51.798Z,2.40
2017-06-26T21:01:19.810Z,2.17
2017-06-26T21:03:48.218Z,2.13
2017-06-26T21:06:15.870Z,2.53
2017-06-26T21:08:43.944Z,2.67
2017-06-26T21:11:11.593Z,2.20
2017-06-26T21:13:39.248Z,2.63
2017-06-26T21:16:08.029Z,2.37
2017-06-26T21:18:36.442Z,2.37
2017-06-26T21:21:04.076Z,2.17
2017-06-26T21:23:32.823Z,2.23
2017-06-26T21:26:00.469Z,2.53
2017-06-26T21:28:28.114Z,2.23
2017-06-26T21:30:55.818Z,2.67
2017-06-26T21:33:23.464Z,2.63
2017-06-26T21:35:51.161Z,2.63
2017-06-26T21:38:18.807Z,2.50
2017-06-26T21:40:46.472Z,2.50
2017-06-26T21:43:14.099Z,2.87
2017-06-26T21:45:41.766Z,2.50
2017-06-26T21:48:09.427Z,2.83
2017-06-26T21:50:37.455Z,2.90
2017-06-26T21:53:05.853Z,2.73
2017-06-26T21:55:33.487Z,3.00
2017-06-26T21:58:01.946Z,2.47
2017-06-26T22:00:29.571Z,2.90
2017-06-26T22:02:57.235Z,2.50
2017-06-26T22:05:24.880Z,2.70
2017-06-26T22:07:52.851Z,2.80
2017-06-26T22:10:20.492Z,2.93
2017-06-26T22:12:48.891Z,2.50
2017-06-26T22:15:16.547Z,2.80
2017-06-26T22:17:44.192Z,2.70
2017-06-26T22:20:12.637Z,2.70
2017-06-26T22:22:40.335Z,2.83
2017-06-26T22:25:09.088Z,2.50
2017-06-26T22:27:36.750Z,2.90
